Hovedside
METAR-TAF:

METAR-TAF

Lufthavner :

Bardufoss, Norge

Bardufoss lufthavn

breddegrad: 69-04N, lengdegrad: 018-32E, høyde over havet: 7 m

Gjeldene værobservasjon

Denne rapporten ble laget for 54 minutter siden, klokken 19:50 UTC
Vind 10 kt fra Vest
Temperatur 0°C
Luftfuktighet 93%
Trykk 1004 hPa
Sikt: 2000 m
snøbyger

METAR: ENDU 261950Z 27010KT 2000 SHSN VV009 M00/M01 Q1004 RESHSN RMK WIND 1100FT 29022KT WIND 2200FT 28037KT

Tid: 22:44 (20:44 UTC)

Varsel

Varsel gyldig fra 26. klokken 18 UTC til 27. klokken 18 UTC
Vind 8 kt fra Vest
Sikt 10 km eller mer
Få skyer i en høyde av 1500 ft
Brutte skyer i en høyde av 3000 ft
lette regnbyger, snø
Midlertidig
fra 26. klokken 18 UTC til 27. klokken 18 UTC
Sikt: 1000 m
i en høyde av 800 ft
snøbyger, regn
Midlertidig
fra 27. klokken 12 UTC til 27. klokken 18 UTC
Vind 15 kt fra Vest-nordvest med vindkast opp mot 25 kt

TAF: ENDU 2618/2718 28008KT 9999 -SHRASN FEW015 BKN030 TEMPO 2618/2718 1000 SHSNRA VV008 TEMPO 2712/2718 30015G25KT

Værobservasjoner og værvarsel for over 4000 flyplasser (METAR- og TAF-rapporter).

Tilgjengelige stasjoner er representert av de røde og gule prikkene på kartet.

Hold musepekeren over prikken for å se navnet på stasjonen.

Klikk så for å se værobservasjoner og -varsler.

For å forandre kartet kan du klikke på den grønne knappen med svart kryss for å zoome inn, på den grønne knappen med strek for å zoome ut, eller på de grønne pilene for å se tilstøtende kart.


METAR-TAF: